Time;durP1;ratioP1;P1;durP2;ratioP2;P2;SDS_P1;SDS_P2;PMS_P1;PMS_P2;Temp;Humidity;BMP_temperature;BMP_pressure;BME280_temperature;BME280_humidity;BME280_pressure;Samples;Min_cycle;Max_cycle;Signal;HPM_P1;HPM_P2
2022/09/01 00:02:14;;;;;;;10.13;8.53;;;;;;;;;;5019744;28;20396;-66
2022/09/01 00:04:40;;;;;;;9.10;8.27;;;;;;;;;;5019711;28;20451;-66
2022/09/01 00:07:07;;;;;;;13.10;8.90;;;;;;;;;;5019975;28;20428;-66
2022/09/01 00:09:33;;;;;;;14.40;9.70;;;;;;;;;;5019728;28;20408;-66
2022/09/01 00:12:00;;;;;;;12.60;8.93;;;;;;;;;;5016486;28;20914;-66
2022/09/01 00:14:27;;;;;;;9.30;8.63;;;;;;;;;;5016834;28;20404;-66
2022/09/01 00:16:54;;;;;;;12.03;8.63;;;;;;;;;;5016407;28;20436;-66
2022/09/01 00:19:21;;;;;;;10.47;9.40;;;;;;;;;;5016521;28;20463;-66
2022/09/01 00:21:47;;;;;;;9.87;8.97;;;;;;;;;;5016534;28;20487;-66
2022/09/01 00:24:14;;;;;;;9.40;8.70;;;;;;;;;;5016330;28;20496;-66
2022/09/01 00:26:40;;;;;;;10.50;9.33;;;;;;;;;;5016605;28;20433;-65
2022/09/01 00:29:06;;;;;;;8.23;7.37;;;;;;;;;;5016310;28;20419;-66
2022/09/01 00:31:32;;;;;;;9.87;8.57;;;;;;;;;;5016207;28;20450;-65
2022/09/01 00:33:58;;;;;;;9.30;7.80;;;;;;;;;;5016175;28;20405;-65
2022/09/01 00:36:24;;;;;;;9.03;7.77;;;;;;;;;;5016149;28;20428;-66
2022/09/01 00:38:50;;;;;;;13.73;8.80;;;;;;;;;;5016080;28;20557;-66
2022/09/01 00:41:18;;;;;;;10.83;8.47;;;;;;;;;;5016060;28;20439;-64
2022/09/01 00:43:55;;;;;;;8.30;7.60;;;;;;;;;;5015973;28;20401;-65
2022/09/01 00:46:20;;;;;;;10.47;8.67;;;;;;;;;;5015959;28;20399;-65
2022/09/01 00:49:07;;;;;;;10.33;8.17;;;;;;;;;;5015881;28;20397;-65
2022/09/01 00:51:34;;;;;;;9.30;8.40;;;;;;;;;;5015472;28;20445;-65
2022/09/01 00:54:01;;;;;;;14.27;8.07;;;;;;;;;;5015798;28;20408;-66
2022/09/01 00:56:28;;;;;;;11.40;8.37;;;;;;;;;;5015775;28;20427;-64
2022/09/01 00:58:54;;;;;;;9.10;8.30;;;;;;;;;;5015640;28;20469;-65
2022/09/01 01:01:22;;;;;;;13.67;8.33;;;;;;;;;;5015674;28;20899;-64
2022/09/01 01:03:48;;;;;;;8.63;7.87;;;;;;;;;;5015870;28;20823;-66
2022/09/01 01:06:15;;;;;;;9.10;8.30;;;;;;;;;;5015642;28;20401;-67
2022/09/01 01:08:48;;;;;;;14.43;8.57;;;;;;;;;;5015500;28;20894;-65
2022/09/01 01:11:18;;;;;;;11.20;8.07;;;;;;;;;;5015493;28;20434;-65
2022/09/01 01:13:54;;;;;;;8.63;8.03;;;;;;;;;;5015467;28;20929;-66
2022/09/01 01:16:21;;;;;;;10.00;8.30;;;;;;;;;;5015402;28;20409;-66
2022/09/01 01:18:47;;;;;;;13.23;9.53;;;;;;;;;;5015525;28;20476;-65
2022/09/01 01:24:23;;;;;;;9.43;8.73;;;;;;;;;;5014313;28;20802;-65
2022/09/01 01:26:49;;;;;;;8.40;8.00;;;;;;;;;;5015188;28;20942;-64
2022/09/01 01:29:16;;;;;;;8.87;8.10;;;;;;;;;;5015181;28;20410;-65
2022/09/01 01:31:42;;;;;;;8.90;8.00;;;;;;;;;;5015153;28;20442;-65
2022/09/01 01:34:08;;;;;;;11.53;8.80;;;;;;;;;;5015069;28;20398;-65
2022/09/01 01:36:35;;;;;;;9.80;8.90;;;;;;;;;;5014944;28;20477;-64
2022/09/01 01:39:21;;;;;;;10.17;8.73;;;;;;;;;;5014892;28;20483;-65
2022/09/01 01:41:49;;;;;;;9.43;8.40;;;;;;;;;;5014974;28;20396;-64
2022/09/01 01:44:17;;;;;;;10.83;7.90;;;;;;;;;;5014881;28;20396;-65
2022/09/01 01:46:45;;;;;;;9.33;8.40;;;;;;;;;;5014740;28;20772;-64
2022/09/01 01:49:13;;;;;;;9.53;7.43;;;;;;;;;;5014777;28;20400;-64
2022/09/01 01:51:40;;;;;;;9.77;8.90;;;;;;;;;;5014693;28;20904;-65
2022/09/01 01:54:06;;;;;;;9.10;8.30;;;;;;;;;;5014724;28;20428;-65
2022/09/01 01:56:36;;;;;;;10.40;9.53;;;;;;;;;;5014726;28;20493;-65
2022/09/01 01:59:03;;;;;;;9.70;8.77;;;;;;;;;;5014526;28;20467;-65
2022/09/01 02:01:30;;;;;;;12.40;9.37;;;;;;;;;;5014555;28;20408;-64
2022/09/01 02:03:57;;;;;;;11.53;8.93;;;;;;;;;;5014555;28;20404;-65
2022/09/01 02:06:24;;;;;;;10.37;9.47;;;;;;;;;;5014474;28;20407;-65
2022/09/01 02:08:51;;;;;;;10.20;9.30;;;;;;;;;;5014418;28;20411;-64
2022/09/01 02:11:17;;;;;;;9.90;9.00;;;;;;;;;;5014431;28;20401;-65
2022/09/01 02:13:43;;;;;;;11.17;9.87;;;;;;;;;;5014355;28;20411;-64
2022/09/01 02:16:13;;;;;;;13.00;11.70;;;;;;;;;;5014346;28;20389;-66
2022/09/01 02:18:41;;;;;;;14.67;11.60;;;;;;;;;;5014245;28;20830;-64
2022/09/01 02:21:12;;;;;;;18.60;11.43;;;;;;;;;;5014460;28;20434;-64
2022/09/01 02:23:39;;;;;;;17.13;13.33;;;;;;;;;;5014494;28;20458;-65
2022/09/01 02:26:07;;;;;;;18.97;13.90;;;;;;;;;;5014178;28;20535;-65
2022/09/01 02:28:35;;;;;;;18.07;14.43;;;;;;;;;;5014201;28;20403;-64
2022/09/01 02:31:02;;;;;;;19.97;15.43;;;;;;;;;;5014143;28;20427;-65
2022/09/01 02:33:29;;;;;;;21.53;15.30;;;;;;;;;;5014011;28;20954;-65
2022/09/01 02:35:56;;;;;;;17.90;15.40;;;;;;;;;;5014063;28;20485;-65
2022/09/01 02:38:25;;;;;;;22.60;15.07;;;;;;;;;;5014224;28;20476;-65
2022/09/01 02:40:52;;;;;;;22.27;15.50;;;;;;;;;;5014021;28;20423;-65
2022/09/01 02:43:19;;;;;;;18.53;16.60;;;;;;;;;;5014037;28;20941;-65
2022/09/01 02:45:46;;;;;;;16.33;14.60;;;;;;;;;;5014219;28;20858;-64
2022/09/01 02:48:12;;;;;;;17.70;16.00;;;;;;;;;;5013826;28;20965;-65
2022/09/01 02:50:40;;;;;;;18.40;16.70;;;;;;;;;;5013924;28;20408;-67
2022/09/01 02:53:08;;;;;;;20.80;16.13;;;;;;;;;;5013702;28;20562;-65
2022/09/01 02:55:35;;;;;;;17.77;16.00;;;;;;;;;;5014082;28;20404;-65
2022/09/01 02:58:01;;;;;;;17.90;16.13;;;;;;;;;;5013712;28;20470;-65
2022/09/01 03:00:32;;;;;;;19.07;16.70;;;;;;;;;;5013851;28;20408;-67
2022/09/01 03:02:59;;;;;;;21.07;18.90;;;;;;;;;;5013710;28;20994;-67
2022/09/01 03:05:28;;;;;;;23.30;17.73;;;;;;;;;;5013764;28;20411;-67
2022/09/01 03:07:56;;;;;;;22.63;18.23;;;;;;;;;;5013645;28;20887;-65
2022/09/01 03:10:35;;;;;;;18.67;15.90;;;;;;;;;;5014022;28;20404;-66
2022/09/01 03:13:05;;;;;;;20.83;17.67;;;;;;;;;;5013674;28;20883;-65
2022/09/01 03:15:32;;;;;;;22.63;19.70;;;;;;;;;;5013615;28;20814;-67
2022/09/01 03:17:59;;;;;;;24.73;22.13;;;;;;;;;;5013751;28;20475;-65
2022/09/01 03:20:25;;;;;;;27.00;24.10;;;;;;;;;;5013886;28;20440;-65
2022/09/01 03:22:52;;;;;;;26.70;22.07;;;;;;;;;;5013796;28;20459;-66
2022/09/01 03:25:18;;;;;;;30.67;22.03;;;;;;;;;;5013594;28;20408;-65
2022/09/01 03:27:44;;;;;;;43.17;24.90;;;;;;;;;;5013485;28;20411;-65
2022/09/01 03:30:10;;;;;;;30.83;25.67;;;;;;;;;;5013517;28;20491;-65
2022/09/01 03:32:36;;;;;;;28.43;23.97;;;;;;;;;;5013477;28;20405;-65
2022/09/01 03:35:02;;;;;;;32.90;24.07;;;;;;;;;;5013515;28;20394;-65
2022/09/01 03:37:28;;;;;;;29.93;25.47;;;;;;;;;;5013357;28;20455;-66
2022/09/01 03:39:56;;;;;;;28.57;25.10;;;;;;;;;;5013484;28;20763;-66
2022/09/01 03:42:24;;;;;;;31.87;24.63;;;;;;;;;;5013359;28;20396;-68
2022/09/01 03:44:50;;;;;;;29.63;25.93;;;;;;;;;;5013376;28;20397;-65
2022/09/01 03:47:16;;;;;;;28.43;24.30;;;;;;;;;;5015735;28;20750;-65
2022/09/01 03:49:44;;;;;;;31.07;24.90;;;;;;;;;;5017030;28;20404;-65
2022/09/01 03:52:10;;;;;;;29.73;26.63;;;;;;;;;;5016839;28;20498;-65
2022/09/01 03:54:37;;;;;;;30.30;27.10;;;;;;;;;;5016952;28;20478;-66
2022/09/01 03:57:05;;;;;;;30.90;27.07;;;;;;;;;;5016865;28;20400;-65
2022/09/01 03:59:31;;;;;;;31.23;27.53;;;;;;;;;;5016835;28;20812;-65
2022/09/01 04:01:59;;;;;;;36.77;30.80;;;;;;;;;;5016733;28;20454;-65
2022/09/01 04:04:25;;;;;;;43.53;32.20;;;;;;;;;;5016792;28;20461;-65
2022/09/01 04:06:51;;;;;;;45.83;30.50;;;;;;;;;;5016709;28;20408;-65
2022/09/01 04:09:17;;;;;;;37.43;31.40;;;;;;;;;;5016649;28;20891;-65
2022/09/01 04:11:45;;;;;;;42.23;33.17;;;;;;;;;;5016663;28;20412;-65
2022/09/01 04:14:11;;;;;;;37.23;32.60;;;;;;;;;;5016582;28;20399;-65
2022/09/01 04:19:25;;;;;;;42.87;33.73;;;;;;;;;;5016525;28;20462;-66
2022/09/01 04:21:55;;;;;;;44.20;34.57;;;;;;;;;;5016405;28;20447;-65
2022/09/01 04:24:23;;;;;;;49.33;35.10;;;;;;;;;;5016528;28;20802;-66
2022/09/01 04:26:49;;;;;;;52.60;38.00;;;;;;;;;;5016639;28;20412;-65
2022/09/01 04:29:18;;;;;;;54.70;35.60;;;;;;;;;;5016262;28;20415;-65
2022/09/01 04:31:44;;;;;;;46.13;35.60;;;;;;;;;;5016264;28;20408;-65
2022/09/01 04:34:13;;;;;;;54.53;35.70;;;;;;;;;;5016226;28;20912;-65
2022/09/01 04:36:43;;;;;;;47.83;37.00;;;;;;;;;;5016223;28;20399;-64
2022/09/01 04:39:11;;;;;;;49.40;34.37;;;;;;;;;;5016050;28;20464;-65
2022/09/01 04:41:39;;;;;;;64.73;41.83;;;;;;;;;;5016061;28;20497;-65
2022/09/01 04:44:06;;;;;;;50.33;37.90;;;;;;;;;;5016316;28;20422;-65
2022/09/01 04:46:34;;;;;;;54.07;38.77;;;;;;;;;;5015906;28;20431;-65
2022/09/01 04:49:02;;;;;;;53.70;38.07;;;;;;;;;;5016219;28;20419;-65
2022/09/01 04:51:28;;;;;;;54.53;40.10;;;;;;;;;;5015772;28;20550;-65
2022/09/01 04:53:56;;;;;;;53.07;37.70;;;;;;;;;;5015866;28;20774;-65
2022/09/01 04:56:22;;;;;;;45.00;36.13;;;;;;;;;;5015852;28;20415;-65
2022/09/01 04:58:49;;;;;;;52.27;38.40;;;;;;;;;;5015332;28;20525;-65
2022/09/01 05:01:16;;;;;;;55.37;38.20;;;;;;;;;;5015726;28;20857;-65
2022/09/01 05:03:42;;;;;;;49.70;39.13;;;;;;;;;;5015768;28;20406;-65
2022/09/01 05:06:16;;;;;;;51.07;39.17;;;;;;;;;;5015547;28;20751;-71
2022/09/01 05:08:44;;;;;;;49.33;36.77;;;;;;;;;;5015806;28;20403;-73
2022/09/01 05:11:10;;;;;;;52.97;39.77;;;;;;;;;;5015485;28;20393;-74
2022/09/01 05:13:38;;;;;;;44.43;36.57;;;;;;;;;;5015491;28;20401;-73
2022/09/01 05:16:11;;;;;;;45.27;35.73;;;;;;;;;;5015645;28;20785;-73
2022/09/01 05:18:37;;;;;;;40.57;33.67;;;;;;;;;;5015312;28;20476;-72
2022/09/01 05:21:09;;;;;;;40.27;33.37;;;;;;;;;;5015294;28;20412;-73
2022/09/01 05:23:36;;;;;;;45.43;35.33;;;;;;;;;;5015314;28;20412;-70
2022/09/01 05:26:13;;;;;;;44.20;35.37;;;;;;;;;;5015219;28;20396;-66
2022/09/01 05:28:40;;;;;;;42.80;35.57;;;;;;;;;;5015158;28;20388;-74
2022/09/01 05:31:06;;;;;;;46.40;35.50;;;;;;;;;;5015202;28;20420;-72
2022/09/01 05:33:35;;;;;;;36.77;32.83;;;;;;;;;;5015113;28;20400;-69
2022/09/01 05:36:06;;;;;;;44.40;34.10;;;;;;;;;;5015085;28;20438;-68
2022/09/01 05:38:32;;;;;;;39.47;33.73;;;;;;;;;;5015115;28;20589;-74
2022/09/01 05:41:03;;;;;;;45.70;34.60;;;;;;;;;;5015130;28;20409;-67
2022/09/01 05:43:31;;;;;;;37.80;30.93;;;;;;;;;;5014931;28;20512;-68
2022/09/01 05:45:57;;;;;;;37.07;28.50;;;;;;;;;;5014890;28;20401;-67
2022/09/01 05:48:24;;;;;;;35.10;30.60;;;;;;;;;;5014837;28;20402;-71
2022/09/01 05:50:55;;;;;;;38.87;31.47;;;;;;;;;;5014973;28;20818;-66
2022/09/01 05:53:24;;;;;;;43.83;33.70;;;;;;;;;;5014539;28;20993;-68
2022/09/01 05:55:55;;;;;;;49.60;33.10;;;;;;;;;;5014730;28;20425;-65
2022/09/01 05:58:24;;;;;;;39.80;33.53;;;;;;;;;;5014637;28;20464;-73
2022/09/01 06:00:52;;;;;;;44.70;32.93;;;;;;;;;;5014804;28;20487;-69
2022/09/01 06:03:18;;;;;;;39.93;33.00;;;;;;;;;;5014594;28;20408;-69
2022/09/01 06:05:51;;;;;;;31.37;27.87;;;;;;;;;;5014502;28;20802;-67
2022/09/01 06:08:17;;;;;;;37.60;29.40;;;;;;;;;;5014352;28;20440;-69
2022/09/01 06:10:44;;;;;;;29.43;25.70;;;;;;;;;;5014053;28;20423;-66
2022/09/01 06:13:10;;;;;;;34.20;27.00;;;;;;;;;;5014283;28;20780;-68
2022/09/01 06:15:37;;;;;;;33.27;29.67;;;;;;;;;;5014595;28;20416;-72
2022/09/01 06:18:04;;;;;;;35.93;28.80;;;;;;;;;;5014144;28;20880;-74
2022/09/01 06:20:31;;;;;;;34.77;27.10;;;;;;;;;;5014402;28;20437;-71
2022/09/01 06:22:57;;;;;;;35.13;27.67;;;;;;;;;;5014436;28;20422;-71
2022/09/01 06:25:25;;;;;;;38.77;26.53;;;;;;;;;;5014235;28;20815;-75
2022/09/01 06:27:51;;;;;;;27.33;24.53;;;;;;;;;;5014155;28;20401;-74
2022/09/01 06:30:21;;;;;;;27.87;24.97;;;;;;;;;;5014177;28;20408;-72
2022/09/01 06:32:48;;;;;;;30.73;26.27;;;;;;;;;;5014147;28;20413;-71
2022/09/01 06:35:15;;;;;;;28.20;25.20;;;;;;;;;;5014060;28;20436;-68
2022/09/01 06:37:42;;;;;;;30.03;24.57;;;;;;;;;;5013959;28;20874;-71
2022/09/01 06:40:15;;;;;;;43.93;26.67;;;;;;;;;;5014208;28;20454;-73
2022/09/01 06:42:42;;;;;;;28.20;25.07;;;;;;;;;;5013827;28;20449;-69
2022/09/01 06:45:09;;;;;;;29.70;25.37;;;;;;;;;;5013914;28;20397;-71
2022/09/01 06:47:35;;;;;;;31.40;24.00;;;;;;;;;;5014141;28;20408;-66
2022/09/01 06:50:02;;;;;;;25.87;22.53;;;;;;;;;;5013858;28;20484;-75
2022/09/01 06:52:28;;;;;;;28.00;24.50;;;;;;;;;;5013741;28;20559;-75
2022/09/01 06:54:54;;;;;;;30.00;25.80;;;;;;;;;;5013779;28;20505;-72
2022/09/01 06:57:21;;;;;;;27.20;24.40;;;;;;;;;;5013666;28;20976;-74
2022/09/01 06:59:47;;;;;;;29.73;24.87;;;;;;;;;;5013689;28;20968;-71
2022/09/01 07:02:18;;;;;;;22.33;19.73;;;;;;;;;;5013841;28;20404;-68
2022/09/01 07:04:44;;;;;;;26.63;20.17;;;;;;;;;;5013689;28;20413;-76
2022/09/01 07:07:11;;;;;;;31.43;24.13;;;;;;;;;;5013665;28;20464;-72
2022/09/01 07:09:38;;;;;;;29.13;24.13;;;;;;;;;;5013689;28;20459;-72
2022/09/01 07:12:04;;;;;;;28.27;25.17;;;;;;;;;;5013633;28;20481;-72
2022/09/01 07:14:30;;;;;;;29.20;26.10;;;;;;;;;;5013560;28;20419;-76
2022/09/01 07:16:57;;;;;;;27.77;24.37;;;;;;;;;;5013518;28;20402;-67
2022/09/01 07:19:24;;;;;;;26.87;24.03;;;;;;;;;;5013649;28;20410;-76
2022/09/01 07:21:51;;;;;;;28.53;23.07;;;;;;;;;;5016994;28;20394;-75
2022/09/01 07:24:19;;;;;;;25.70;22.97;;;;;;;;;;5017538;28;20796;-70
2022/09/01 07:26:48;;;;;;;26.30;23.50;;;;;;;;;;5017746;28;20394;-75
2022/09/01 07:29:14;;;;;;;25.10;22.37;;;;;;;;;;5017407;28;20402;-75
2022/09/01 07:31:42;;;;;;;25.20;22.67;;;;;;;;;;5017371;28;20395;-73
2022/09/01 07:34:11;;;;;;;23.40;20.90;;;;;;;;;;5017393;28;20456;-74
2022/09/01 07:36:37;;;;;;;26.67;22.17;;;;;;;;;;5017563;28;20396;-69
2022/09/01 07:39:04;;;;;;;27.50;23.43;;;;;;;;;;5017387;28;20824;-72
2022/09/01 07:41:31;;;;;;;23.37;21.10;;;;;;;;;;5017211;28;20432;-72
2022/09/01 07:43:59;;;;;;;25.03;20.63;;;;;;;;;;5032395;28;20434;-73
2022/09/01 07:46:25;;;;;;;24.83;22.23;;;;;;;;;;5017240;28;20832;-71
2022/09/01 07:48:55;;;;;;;25.80;21.37;;;;;;;;;;5017017;28;20413;-73
2022/09/01 07:51:21;;;;;;;24.10;21.53;;;;;;;;;;5016796;28;20892;-71
2022/09/01 07:53:49;;;;;;;24.10;21.60;;;;;;;;;;5016897;28;20905;-69
2022/09/01 07:56:17;;;;;;;23.13;20.63;;;;;;;;;;5017001;28;20489;-72
2022/09/01 07:58:44;;;;;;;26.97;21.10;;;;;;;;;;5016989;28;20477;-73
2022/09/01 08:01:17;;;;;;;20.70;18.70;;;;;;;;;;5017083;28;20413;-73
2022/09/01 08:03:48;;;;;;;22.10;19.90;;;;;;;;;;5016735;28;20410;-71
2022/09/01 08:06:19;;;;;;;22.70;20.43;;;;;;;;;;5017023;28;20400;-67
2022/09/01 08:08:45;;;;;;;20.87;18.77;;;;;;;;;;5017321;28;20882;-70
2022/09/01 08:11:16;;;;;;;24.67;18.83;;;;;;;;;;5016731;28;20405;-66
2022/09/01 08:13:42;;;;;;;20.50;18.50;;;;;;;;;;5016790;28;20396;-65
2022/09/01 08:16:09;;;;;;;22.10;19.73;;;;;;;;;;5031607;28;20564;-69
2022/09/01 08:18:35;;;;;;;24.27;19.10;;;;;;;;;;5016423;28;20553;-73
2022/09/01 08:21:05;;;;;;;19.93;17.83;;;;;;;;;;5016405;28;20503;-68
2022/09/01 08:23:31;;;;;;;19.53;17.43;;;;;;;;;;5016628;28;20779;-73
2022/09/01 08:25:57;;;;;;;19.63;17.77;;;;;;;;;;5016347;28;20399;-68
2022/09/01 08:28:23;;;;;;;20.87;17.10;;;;;;;;;;5016248;28;20416;-70
2022/09/01 08:30:49;;;;;;;19.63;16.97;;;;;;;;;;5016310;28;20404;-67
2022/09/01 08:33:15;;;;;;;19.17;16.37;;;;;;;;;;5015628;28;20472;-72
2022/09/01 08:35:42;;;;;;;15.53;14.20;;;;;;;;;;5016377;28;20404;-67
2022/09/01 08:38:08;;;;;;;17.27;15.57;;;;;;;;;;5016097;28;20984;-72
2022/09/01 08:40:35;;;;;;;16.53;14.77;;;;;;;;;;5016077;28;20404;-67
2022/09/01 08:43:03;;;;;;;15.00;13.40;;;;;;;;;;5016007;28;20724;-74
2022/09/01 08:45:32;;;;;;;16.50;15.00;;;;;;;;;;5016033;28;20435;-76
2022/09/01 08:48:02;;;;;;;16.47;14.93;;;;;;;;;;5016008;28;20403;-76
2022/09/01 08:50:28;;;;;;;18.27;16.57;;;;;;;;;;5015811;28;20406;-72
2022/09/01 08:52:58;;;;;;;14.83;13.63;;;;;;;;;;5015718;28;20518;-67
2022/09/01 08:55:39;;;;;;;16.27;14.77;;;;;;;;;;5015839;28;20432;-76
2022/09/01 08:58:05;;;;;;;15.80;14.30;;;;;;;;;;5016021;28;20886;-67
2022/09/01 09:00:41;;;;;;;20.80;15.77;;;;;;;;;;5015786;28;20763;-67
2022/09/01 09:03:10;;;;;;;15.10;13.90;;;;;;;;;;5015624;28;20381;-74
2022/09/01 09:05:54;;;;;;;16.83;13.70;;;;;;;;;;5015623;28;20429;-68
2022/09/01 09:08:29;;;;;;;15.60;14.03;;;;;;;;;;5015548;28;20402;-74
2022/09/01 09:11:04;;;;;;;15.87;14.30;;;;;;;;;;5015520;28;20402;-72
2022/09/01 09:14:02;;;;;;;16.37;14.67;;;;;;;;;;5015678;28;20432;-67
2022/09/01 09:16:36;;;;;;;16.60;14.97;;;;;;;;;;5014287;28;20430;-72
2022/09/01 09:19:05;;;;;;;15.30;13.90;;;;;;;;;;5015503;28;20863;-66
2022/09/01 09:21:38;;;;;;;18.77;16.43;;;;;;;;;;5015130;28;20394;-73
2022/09/01 09:24:10;;;;;;;20.90;16.00;;;;;;;;;;5015107;28;20413;-71
2022/09/01 09:26:36;;;;;;;15.73;14.10;;;;;;;;;;5015266;28;20448;-70
2022/09/01 09:29:03;;;;;;;16.13;14.43;;;;;;;;;;5015185;28;20407;-67
2022/09/01 09:31:42;;;;;;;14.93;13.53;;;;;;;;;;5015029;28;20750;-65
2022/09/01 09:34:17;;;;;;;15.00;12.97;;;;;;;;;;5014264;28;20427;-75
2022/09/01 09:36:45;;;;;;;13.33;12.13;;;;;;;;;;5013748;28;20475;-70
2022/09/01 09:39:15;;;;;;;13.37;12.07;;;;;;;;;;5013767;28;20490;-75
2022/09/01 09:41:41;;;;;;;11.63;10.57;;;;;;;;;;5014444;28;20402;-68
2022/09/01 09:44:07;;;;;;;13.37;11.97;;;;;;;;;;5013645;28;20408;-72
2022/09/01 09:46:37;;;;;;;11.90;10.83;;;;;;;;;;5014860;28;20405;-69
2022/09/01 09:49:06;;;;;;;11.77;10.60;;;;;;;;;;5014884;28;20442;-71
2022/09/01 09:51:32;;;;;;;10.43;9.73;;;;;;;;;;5014632;28;20458;-66
2022/09/01 09:54:14;;;;;;;10.03;9.33;;;;;;;;;;5013918;28;20417;-68
2022/09/01 09:56:43;;;;;;;10.60;9.63;;;;;;;;;;5013942;28;20402;-75
2022/09/01 09:59:21;;;;;;;12.63;11.50;;;;;;;;;;5013638;28;20467;-73
2022/09/01 10:01:50;;;;;;;13.67;12.40;;;;;;;;;;5013753;28;20406;-71
2022/09/01 10:04:30;;;;;;;11.87;10.90;;;;;;;;;;5014574;28;20432;-71
2022/09/01 10:06:56;;;;;;;11.70;10.70;;;;;;;;;;5014510;28;20403;-69
2022/09/01 10:09:22;;;;;;;11.87;11.00;;;;;;;;;;5014807;28;20825;-77
2022/09/01 10:11:54;;;;;;;11.80;10.77;;;;;;;;;;5014346;28;20404;-71
2022/09/01 10:14:22;;;;;;;10.60;9.73;;;;;;;;;;5014471;28;20159;-74
2022/09/01 10:16:52;;;;;;;10.43;9.63;;;;;;;;;;5014533;28;20417;-76
2022/09/01 10:19:18;;;;;;;10.10;9.40;;;;;;;;;;5014346;28;20472;-71
2022/09/01 10:21:45;;;;;;;9.50;8.90;;;;;;;;;;5014468;28;20404;-68
2022/09/01 10:24:18;;;;;;;8.27;7.57;;;;;;;;;;5014095;28;20802;-74
2022/09/01 10:26:46;;;;;;;8.73;8.07;;;;;;;;;;5014566;28;20404;-72
2022/09/01 10:29:14;;;;;;;7.37;6.87;;;;;;;;;;5014192;28;20399;-70
2022/09/01 10:31:41;;;;;;;7.77;7.27;;;;;;;;;;5014165;28;20406;-70
2022/09/01 10:34:11;;;;;;;8.77;8.07;;;;;;;;;;5014090;28;20409;-72
2022/09/01 10:36:37;;;;;;;8.77;8.10;;;;;;;;;;5014113;28;20896;-71
2022/09/01 10:39:04;;;;;;;9.03;7.77;;;;;;;;;;5013947;28;20562;-72
2022/09/01 10:41:42;;;;;;;8.93;8.37;;;;;;;;;;5013977;28;20476;-71
2022/09/01 10:44:09;;;;;;;7.13;6.63;;;;;;;;;;5013907;28;20499;-74
2022/09/01 10:46:40;;;;;;;7.67;7.17;;;;;;;;;;5029130;28;20419;-72
2022/09/01 10:49:17;;;;;;;6.70;6.37;;;;;;;;;;5013867;28;20503;-73
2022/09/01 10:51:45;;;;;;;7.23;6.50;;;;;;;;;;5013677;28;20456;-65
2022/09/01 10:54:31;;;;;;;7.20;6.67;;;;;;;;;;5013282;28;20419;-66
2022/09/01 10:57:00;;;;;;;6.80;6.50;;;;;;;;;;5012606;28;20612;-74
2022/09/01 10:59:27;;;;;;;6.30;6.00;;;;;;;;;;5012828;28;20618;-68
2022/09/01 11:01:53;;;;;;;6.43;6.13;;;;;;;;;;5012849;28;20431;-69
2022/09/01 11:04:20;;;;;;;7.03;5.30;;;;;;;;;;5012876;28;20436;-70
2022/09/01 11:07:12;;;;;;;4.97;4.67;;;;;;;;;;5012855;28;20172;-70
2022/09/01 11:09:43;;;;;;;3.90;3.80;;;;;;;;;;5019504;28;20465;-71
2022/09/01 11:12:23;;;;;;;5.17;4.80;;;;;;;;;;5012824;28;20459;-65
2022/09/01 11:14:54;;;;;;;4.60;4.20;;;;;;;;;;5027839;28;20438;-64
2022/09/01 11:17:23;;;;;;;4.17;4.07;;;;;;;;;;5012736;28;20411;-65
2022/09/01 11:19:49;;;;;;;4.27;3.97;;;;;;;;;;5012648;28;20789;-65
2022/09/01 11:22:34;;;;;;;4.30;4.17;;;;;;;;;;5012450;28;20491;-64
2022/09/01 11:25:08;;;;;;;4.03;3.83;;;;;;;;;;5012548;28;20185;-69
2022/09/01 11:27:49;;;;;;;4.10;4.00;;;;;;;;;;5012590;28;20490;-64
2022/09/01 11:30:30;;;;;;;4.00;3.90;;;;;;;;;;5012507;28;20777;-65
2022/09/01 11:33:05;;;;;;;5.47;4.30;;;;;;;;;;5012615;28;20880;-72
2022/09/01 11:35:31;;;;;;;4.63;4.30;;;;;;;;;;5012513;28;20396;-66
2022/09/01 11:38:02;;;;;;;3.50;3.30;;;;;;;;;;5012719;28;20828;-67
2022/09/01 11:40:30;;;;;;;4.93;3.80;;;;;;;;;;5013300;28;20408;-69
2022/09/01 11:42:56;;;;;;;4.07;3.87;;;;;;;;;;5013336;28;20412;-66
2022/09/01 11:45:29;;;;;;;3.97;3.87;;;;;;;;;;5013368;28;20863;-66
2022/09/01 11:47:56;;;;;;;4.37;4.00;;;;;;;;;;5013270;28;20412;-66
2022/09/01 11:50:31;;;;;;;4.10;3.93;;;;;;;;;;5013123;28;20890;-66
2022/09/01 11:52:58;;;;;;;3.90;3.70;;;;;;;;;;5013065;28;20973;-66
2022/09/01 11:55:29;;;;;;;3.50;3.37;;;;;;;;;;5013290;28;20393;-66
2022/09/01 11:57:55;;;;;;;3.70;3.60;;;;;;;;;;5013345;28;20464;-67
2022/09/01 12:00:30;;;;;;;3.80;3.80;;;;;;;;;;5013162;28;20398;-67
2022/09/01 12:02:56;;;;;;;3.87;3.77;;;;;;;;;;5013058;28;20446;-71
2022/09/01 12:05:33;;;;;;;3.50;3.30;;;;;;;;;;5013064;28;20402;-66
2022/09/01 12:08:01;;;;;;;6.00;3.30;;;;;;;;;;5014731;28;20435;-64
2022/09/01 12:10:27;;;;;;;3.13;3.13;;;;;;;;;;5016448;28;20448;-65
2022/09/01 12:13:10;;;;;;;3.50;3.40;;;;;;;;;;5016616;28;20441;-65
2022/09/01 12:15:40;;;;;;;3.40;3.30;;;;;;;;;;5016515;28;20180;-64
2022/09/01 12:18:12;;;;;;;3.67;3.47;;;;;;;;;;5016337;28;20496;-65
2022/09/01 12:20:39;;;;;;;3.63;3.53;;;;;;;;;;5016334;28;20412;-66
2022/09/01 12:23:16;;;;;;;3.20;3.10;;;;;;;;;;5016305;28;20447;-65
2022/09/01 12:25:43;;;;;;;3.43;3.33;;;;;;;;;;5016153;28;20496;-65
2022/09/01 12:28:10;;;;;;;3.23;3.23;;;;;;;;;;5016308;28;20819;-66
2022/09/01 12:30:38;;;;;;;3.47;3.37;;;;;;;;;;5016418;28;20507;-65
2022/09/01 12:33:05;;;;;;;4.70;3.33;;;;;;;;;;5016138;28;20452;-66
2022/09/01 12:35:31;;;;;;;3.50;3.40;;;;;;;;;;5016242;28;20396;-64
2022/09/01 12:38:15;;;;;;;3.30;3.20;;;;;;;;;;5016117;28;20681;-67
2022/09/01 12:40:41;;;;;;;2.67;2.67;;;;;;;;;;5016290;28;20404;-66
2022/09/01 12:43:07;;;;;;;2.90;2.57;;;;;;;;;;5031281;28;20412;-66
2022/09/01 12:45:38;;;;;;;3.07;2.80;;;;;;;;;;5016328;28;20479;-68
2022/09/01 12:48:04;;;;;;;3.47;3.27;;;;;;;;;;5015982;28;20420;-65
2022/09/01 12:50:30;;;;;;;4.70;3.00;;;;;;;;;;5031065;28;20424;-65
2022/09/01 12:52:57;;;;;;;2.90;2.80;;;;;;;;;;5015591;28;20464;-66
2022/09/01 12:55:30;;;;;;;2.80;2.70;;;;;;;;;;5015614;28;20201;-66
2022/09/01 12:57:58;;;;;;;2.40;2.40;;;;;;;;;;5015578;28;20817;-68
2022/09/01 13:00:25;;;;;;;2.60;2.60;;;;;;;;;;5015800;28;20401;-73
2022/09/01 13:03:04;;;;;;;2.83;2.77;;;;;;;;;;5015682;28;20406;-65
2022/09/01 13:05:38;;;;;;;3.23;2.67;;;;;;;;;;5015666;28;20404;-66
2022/09/01 13:08:07;;;;;;;3.43;3.20;;;;;;;;;;5015627;28;20401;-65
2022/09/01 13:10:53;;;;;;;3.47;2.93;;;;;;;;;;5015501;28;20876;-66
2022/09/01 13:13:20;;;;;;;3.23;3.23;;;;;;;;;;5015369;28;20457;-65
2022/09/01 13:15:47;;;;;;;2.47;2.47;;;;;;;;;;5015534;28;20950;-65
2022/09/01 13:18:14;;;;;;;2.20;2.20;;;;;;;;;;5014994;28;20790;-72
2022/09/01 13:20:40;;;;;;;2.73;2.30;;;;;;;;;;5014095;28;20551;-68
2022/09/01 13:23:07;;;;;;;2.70;2.60;;;;;;;;;;5014823;28;20803;-66
2022/09/01 13:25:33;;;;;;;2.77;2.77;;;;;;;;;;5015173;28;20405;-66
2022/09/01 13:28:01;;;;;;;2.17;2.17;;;;;;;;;;5014994;28;20405;-65
2022/09/01 13:30:28;;;;;;;2.83;2.83;;;;;;;;;;5015458;28;20390;-65
2022/09/01 13:32:55;;;;;;;2.80;2.70;;;;;;;;;;5015016;28;20962;-67
2022/09/01 13:35:21;;;;;;;2.50;2.50;;;;;;;;;;5015000;28;20393;-65
2022/09/01 13:37:48;;;;;;;3.80;2.10;;;;;;;;;;5015193;28;20454;-68
2022/09/01 13:40:15;;;;;;;3.00;2.90;;;;;;;;;;5015010;28;20428;-65
2022/09/01 13:42:44;;;;;;;2.47;2.37;;;;;;;;;;5015048;28;20390;-66
2022/09/01 13:45:15;;;;;;;7.37;2.20;;;;;;;;;;5014904;28;20413;-65
2022/09/01 13:47:42;;;;;;;2.23;2.13;;;;;;;;;;5015176;28;20476;-66
2022/09/01 13:50:09;;;;;;;3.07;2.33;;;;;;;;;;5014838;28;20421;-66
2022/09/01 13:52:36;;;;;;;2.43;2.43;;;;;;;;;;5014769;28;20551;-65
2022/09/01 13:55:02;;;;;;;2.80;2.70;;;;;;;;;;5015048;28;20497;-67
2022/09/01 13:57:29;;;;;;;2.53;2.43;;;;;;;;;;5014735;28;20429;-66
2022/09/01 13:59:56;;;;;;;2.40;2.40;;;;;;;;;;5014735;28;20462;-68
2022/09/01 14:02:22;;;;;;;2.37;2.27;;;;;;;;;;5014676;28;20396;-65
2022/09/01 14:04:48;;;;;;;2.40;2.20;;;;;;;;;;5014469;28;20732;-67
2022/09/01 14:07:15;;;;;;;2.20;2.10;;;;;;;;;;5014503;28;20412;-65
2022/09/01 14:09:41;;;;;;;2.40;1.90;;;;;;;;;;5014671;28;20401;-65
2022/09/01 14:12:07;;;;;;;2.13;2.03;;;;;;;;;;5014456;28;20404;-67
2022/09/01 14:14:33;;;;;;;1.83;1.83;;;;;;;;;;5014227;28;20419;-65
2022/09/01 14:17:00;;;;;;;2.10;2.10;;;;;;;;;;5014289;28;20399;-66
2022/09/01 14:19:27;;;;;;;1.77;1.77;;;;;;;;;;5014319;28;20511;-65
2022/09/01 14:21:53;;;;;;;1.80;1.80;;;;;;;;;;5014258;28;20484;-64
2022/09/01 14:24:19;;;;;;;1.90;1.80;;;;;;;;;;5014191;28;20891;-66
2022/09/01 14:26:46;;;;;;;1.70;1.70;;;;;;;;;;5014313;28;20774;-64
2022/09/01 14:29:12;;;;;;;2.23;1.80;;;;;;;;;;5014120;28;20407;-69
2022/09/01 14:31:38;;;;;;;1.70;1.70;;;;;;;;;;5013883;28;20415;-65
2022/09/01 14:34:05;;;;;;;1.80;1.80;;;;;;;;;;5014176;28;20393;-65
2022/09/01 14:36:31;;;;;;;4.40;1.60;;;;;;;;;;5014151;28;20421;-66
2022/09/01 14:38:58;;;;;;;1.53;1.53;;;;;;;;;;5013983;28;20500;-68
2022/09/01 14:41:24;;;;;;;4.10;1.80;;;;;;;;;;5014032;28;20868;-69
2022/09/01 14:43:53;;;;;;;2.27;2.17;;;;;;;;;;5014022;28;20409;-79